رداً على: مطارات الهند

الرئيسية المنتدى المطارات مطارات الهند رداً على: مطارات الهند

#1607
عبد الله فهد
مدير عام

مطار لكناو – الهند 

VILK 

وقت الوصول يوم

04/18/2022

0210 UTC 

الجو بوقت الوصول كان

VILK 180200Z 00000KT 4000 HZ NSC 26/15 Q1005 NOSIG

المطار يعتبر من تصنيف A Airport

مافية STAR ولا SID معمول فية 

توقع انه يكون Radar Vectors   

بوقت وصولنا كانت الرياح Calm 

واستخدمنا مدرج 27 للهبوط وبعدها تاكسي وي C  ستاند رقم ٨

من الرياض الى لكناو تم استخدام الموجات التالية: 

133.250 KODAT

133.500 GESOR

127.525  DAROP (Bahrain)

132.125 DEBEN (Bahrain) 

132.150 NALPO (UAE) 

119.800 TONVO (Muscat)

128.150 ITLOB (Muscat) 

133.025 APELO (Karachi)

128.350 PI (Karachi) 

123.150 SK (Lahor)

124.550 MERUN (Delhi)

125.700 CHI 

120.450 App

125.800 Lucknow App

 

من لكناو الى الرياض تم استخدام الموجات التالية:

125.800 Lucknow App

120.450 App

120.900 JAL 

124.550 SSB 

123.150 MERUN 

128.350 SK (Karachi)

133.025 ADGUL (Karachi)

128.150 TAPDO (Muscat)

119.800 TOVDI (Muscat)

132.150 MENSA (UAE)

124.375 IVOXI (UAE)

132.125 ALPOB (Bahrain)

127.525 SOLOB (Bahrain)

132.500 ULADA (Jed)

133.250 RABKA

126.0 Riyadh